createdAt,value
2019-03-23T00:00:46.527Z,228.70
2019-03-23T00:01:46.438Z,205.90
2019-03-23T00:02:46.363Z,212.60
2019-03-23T00:03:46.274Z,188.20
2019-03-23T00:04:46.187Z,214.40
2019-03-23T00:05:46.100Z,215.80
2019-03-23T00:06:46.025Z,227.10
2019-03-23T00:07:45.941Z,206.90
2019-03-23T00:08:45.866Z,226.70
2019-03-23T00:09:45.764Z,228.90
2019-03-23T00:10:45.689Z,213.60
2019-03-23T00:11:45.600Z,215.70
2019-03-23T00:12:45.524Z,211.50
2019-03-23T00:13:45.425Z,217.00
2019-03-23T00:14:45.351Z,233.80
2019-03-23T00:15:45.263Z,222.10
2019-03-23T00:16:45.175Z,237.40
2019-03-23T00:17:45.090Z,243.20
2019-03-23T00:18:45.015Z,207.40
2019-03-23T00:19:44.926Z,239.20
2019-03-23T00:20:44.841Z,233.40
2019-03-23T00:21:44.755Z,217.40
2019-03-23T00:22:44.676Z,229.10
2019-03-23T00:23:44.590Z,232.20
2019-03-23T00:24:44.515Z,229.30
2019-03-23T00:25:44.416Z,252.20
2019-03-23T00:26:44.342Z,236.00
2019-03-23T00:27:44.255Z,233.40
2019-03-23T00:28:44.166Z,218.30
2019-03-23T00:29:44.081Z,244.00
2019-03-23T00:30:44.003Z,252.70
2019-03-23T00:31:43.915Z,255.30
2019-03-23T00:32:43.829Z,234.40
2019-03-23T00:33:43.741Z,230.50
2019-03-23T00:34:43.655Z,214.30
2019-03-23T00:35:43.578Z,208.70
2019-03-23T00:36:43.491Z,235.20
2019-03-23T00:37:43.403Z,218.30
2019-03-23T00:38:43.328Z,241.20
2019-03-23T00:39:43.242Z,232.00
2019-03-23T00:40:43.153Z,230.70
2019-03-23T00:41:43.066Z,252.80
2019-03-23T00:42:42.980Z,268.40
2019-03-23T00:43:42.905Z,270.00
2019-03-23T00:44:42.817Z,232.70
2019-03-23T00:45:42.742Z,245.30
2019-03-23T00:46:42.655Z,214.00
2019-03-23T00:47:42.568Z,219.40
2019-03-23T00:48:42.480Z,268.20
2019-03-23T00:49:42.395Z,224.10
2019-03-23T00:50:42.309Z,225.20
2019-03-23T00:51:42.230Z,233.90
2019-03-23T00:52:42.142Z,243.40
2019-03-23T00:53:42.055Z,253.90
2019-03-23T00:54:41.969Z,253.50
2019-03-23T00:55:41.897Z,273.70
2019-03-23T00:56:41.805Z,252.30
2019-03-23T00:57:41.722Z,244.20
2019-03-23T00:58:41.631Z,244.00
2019-03-23T00:59:41.555Z,231.80
2019-03-23T01:00:41.469Z,254.90
2019-03-23T01:01:41.386Z,252.80
2019-03-23T01:02:42.084Z,272.40
2019-03-23T01:03:41.218Z,299.10
2019-03-23T01:04:41.131Z,245.70
2019-03-23T01:05:41.044Z,257.80
2019-03-23T01:06:51.454Z,247.80
2019-03-23T01:07:40.886Z,250.40
2019-03-23T01:08:40.795Z,244.10
2019-03-23T01:09:40.708Z,275.50
2019-03-23T01:10:40.622Z,270.30
2019-03-23T01:11:40.545Z,270.30
2019-03-23T01:12:40.463Z,249.20
2019-03-23T01:13:40.372Z,211.70
2019-03-23T01:14:40.295Z,256.60
2019-03-23T01:15:40.209Z,263.70
2019-03-23T01:16:40.122Z,265.00
2019-03-23T01:17:40.034Z,248.50
2019-03-23T01:18:39.946Z,251.30
2019-03-23T01:19:39.861Z,253.60
2019-03-23T01:20:49.387Z,233.60
2019-03-23T01:21:39.695Z,272.60
2019-03-23T01:22:39.608Z,245.50
2019-03-23T01:23:39.524Z,253.20
2019-03-23T01:24:39.446Z,270.30
2019-03-23T01:25:39.359Z,261.70
2019-03-23T01:26:39.277Z,233.70
2019-03-23T01:27:39.196Z,263.90
2019-03-23T01:28:39.109Z,302.90
2019-03-23T01:29:39.026Z,318.80
2019-03-23T01:30:38.935Z,345.30
2019-03-23T01:31:38.847Z,330.60
2019-03-23T01:32:38.774Z,401.30
2019-03-23T01:33:38.698Z,301.80
2019-03-23T05:36:11.326Z,150.70
2019-03-23T05:37:11.385Z,144.70
2019-03-23T05:38:10.749Z,145.00
2019-03-23T05:39:10.673Z,179.80
2019-03-23T05:40:10.574Z,207.10
2019-03-23T05:41:10.487Z,182.40
2019-03-23T05:42:10.410Z,174.80
2019-03-23T05:43:10.324Z,130.20
2019-03-23T05:44:10.236Z,145.80
2019-03-23T05:45:10.155Z,167.60
2019-03-23T05:46:10.062Z,200.40
2019-03-23T05:47:09.987Z,177.60
2019-03-23T05:48:09.900Z,133.70
2019-03-23T05:49:09.826Z,126.40
2019-03-23T05:50:09.724Z,162.70
2019-03-23T05:51:09.637Z,153.40
2019-03-23T05:52:09.562Z,157.30
2019-03-23T05:53:09.475Z,131.40
2019-03-23T05:54:09.387Z,147.50
2019-03-23T05:55:09.300Z,142.30
2019-03-23T05:56:09.226Z,148.00
2019-03-23T05:57:09.138Z,154.60
2019-03-23T05:58:09.054Z,144.40
2019-03-23T05:59:08.964Z,140.30
2019-03-23T06:00:08.877Z,141.50
2019-03-23T06:01:08.802Z,125.90
2019-03-23T06:02:08.726Z,129.60
2019-03-23T06:03:08.634Z,112.00
2019-03-23T06:04:08.538Z,113.80
2019-03-23T06:05:08.457Z,118.60
2019-03-23T06:06:08.377Z,129.40
2019-03-23T06:07:08.291Z,127.50
2019-03-23T06:08:08.203Z,120.30
2019-03-23T06:09:08.127Z,116.90
2019-03-23T06:10:08.039Z,111.10
2019-03-23T06:11:07.958Z,113.20
2019-03-23T06:12:07.877Z,115.20
2019-03-23T06:13:07.777Z,103.70
2019-03-23T06:14:07.695Z,105.30
2019-03-23T06:15:07.628Z,98.20
2019-03-23T06:16:07.528Z,99.50
2019-03-23T06:17:07.440Z,100.30
2019-03-23T06:18:07.356Z,99.90
2019-03-23T06:19:07.279Z,98.20
2019-03-23T06:20:07.190Z,97.30
2019-03-23T06:21:07.104Z,98.00
2019-03-23T06:22:07.018Z,102.60
2019-03-23T06:23:06.945Z,98.00
2019-03-23T06:24:06.854Z,91.20
2019-03-23T06:25:06.769Z,93.30
2019-03-23T06:26:06.682Z,94.10
2019-03-23T06:27:06.607Z,92.30
2019-03-23T06:28:06.515Z,90.70
2019-03-23T06:29:06.429Z,89.80
2019-03-23T06:30:06.354Z,80.60
2019-03-23T06:31:06.266Z,82.20
2019-03-23T06:32:06.179Z,75.90
2019-03-23T06:33:06.094Z,80.80
2019-03-23T06:34:06.005Z,77.90
2019-03-23T06:35:05.930Z,73.40
2019-03-23T06:36:05.842Z,71.90
2019-03-23T06:37:05.759Z,72.90
2019-03-23T06:38:05.668Z,67.60
2019-03-23T06:39:05.948Z,68.10
2019-03-23T06:40:05.505Z,67.40
2019-03-23T06:41:05.420Z,62.10
2019-03-23T06:42:05.343Z,62.70
2019-03-23T06:43:05.256Z,59.20
2019-03-23T06:44:05.167Z,58.20
2019-03-23T06:45:05.082Z,51.50
2019-03-23T06:46:05.006Z,51.80
2019-03-23T06:47:04.924Z,47.60
2019-03-23T06:48:04.837Z,47.30
2019-03-23T06:49:04.757Z,44.20
2019-03-23T06:50:04.669Z,43.50
2019-03-23T06:51:04.582Z,46.10
2019-03-23T06:52:04.506Z,42.70
2019-03-23T06:53:04.418Z,42.90
2019-03-23T06:54:04.333Z,41.70
2019-03-23T06:55:04.257Z,41.20
2019-03-23T06:56:04.169Z,38.70
2019-03-23T06:57:04.084Z,38.20
2019-03-23T06:58:04.007Z,38.40
2019-03-23T06:59:03.919Z,41.00
2019-03-23T07:00:03.833Z,37.80
2019-03-23T07:01:03.758Z,36.90
2019-03-23T07:02:03.673Z,37.30
2019-03-23T07:03:03.618Z,35.80
2019-03-23T07:04:03.509Z,41.00
2019-03-23T07:05:03.433Z,36.80
2019-03-23T07:06:03.347Z,36.50
2019-03-23T07:07:03.258Z,36.60
2019-03-23T07:08:03.184Z,39.10
2019-03-23T07:09:03.095Z,34.50
2019-03-23T07:10:03.009Z,35.60
2019-03-23T07:11:02.934Z,38.50
2019-03-23T07:12:02.846Z,36.10
2019-03-23T07:13:02.761Z,36.00
2019-03-23T07:14:02.684Z,35.70
2019-03-23T07:15:02.596Z,35.20
2019-03-23T07:16:02.511Z,33.20
2019-03-23T07:17:02.435Z,32.60
2019-03-23T07:18:02.347Z,34.60
2019-03-23T07:19:02.272Z,34.20
2019-03-23T07:20:02.185Z,33.30
2019-03-23T07:21:02.109Z,34.80
2019-03-23T07:22:02.022Z,34.30
2019-03-23T07:23:01.935Z,33.20
2019-03-23T07:24:01.861Z,31.80
2019-03-23T07:25:01.773Z,33.20
2019-03-23T07:26:01.699Z,31.30
2019-03-23T07:27:01.618Z,33.60
2019-03-23T07:28:01.535Z,33.60
2019-03-23T07:29:01.449Z,31.70
2019-03-23T07:30:01.374Z,35.10
2019-03-23T07:31:01.286Z,32.90
2019-03-23T07:32:05.711Z,32.20
2019-03-23T07:33:01.142Z,31.00
2019-03-23T07:34:01.052Z,31.50
2019-03-23T07:35:00.963Z,32.20
2019-03-23T07:36:00.890Z,31.80
2019-03-23T07:37:00.798Z,33.20
2019-03-23T07:38:00.724Z,31.40
2019-03-23T07:39:00.636Z,30.10
2019-03-23T07:40:00.564Z,30.10
2019-03-23T07:41:00.474Z,30.50
2019-03-23T07:42:00.412Z,30.70
2019-03-23T07:43:00.324Z,30.00
2019-03-23T07:44:00.237Z,29.50
2019-03-23T07:45:00.343Z,32.30
2019-03-23T07:46:00.075Z,30.30
2019-03-23T07:47:00.001Z,29.40
2019-03-23T07:47:59.924Z,30.70
2019-03-23T07:48:59.842Z,29.80
2019-03-23T07:49:59.763Z,30.80
2019-03-23T07:50:59.688Z,30.00
2019-03-23T07:51:59.600Z,31.40
2019-03-23T07:52:59.526Z,31.00
2019-03-23T07:53:59.465Z,29.50
2019-03-23T07:54:59.364Z,32.50
2019-03-23T07:55:59.292Z,31.90
2019-03-23T07:56:59.214Z,31.00
2019-03-23T07:57:59.142Z,29.20
2019-03-23T07:58:59.053Z,31.00
2019-03-23T07:59:58.978Z,28.20
2019-03-23T08:00:58.901Z,30.30
2019-03-23T08:01:58.826Z,30.70
2019-03-23T08:02:58.741Z,31.80
2019-03-23T08:03:58.666Z,33.40
2019-03-23T08:04:58.597Z,30.30
2019-03-23T08:05:58.517Z,31.40
2019-03-23T08:06:58.442Z,32.50
2019-03-23T08:07:58.365Z,32.80
2019-03-23T08:08:58.277Z,35.20
2019-03-23T08:09:58.202Z,31.70
2019-03-23T08:10:58.128Z,32.60
2019-03-23T08:11:58.066Z,29.90
2019-03-23T08:12:57.977Z,32.70
2019-03-23T08:13:57.903Z,32.10
2019-03-23T08:14:57.828Z,33.00
2019-03-23T08:15:57.742Z,34.30
2019-03-23T08:16:57.666Z,32.40
2019-03-23T08:17:57.599Z,34.40
2019-03-23T08:18:57.516Z,32.80
2019-03-23T08:19:57.442Z,34.50
2019-03-23T08:20:57.368Z,31.70
2019-03-23T08:21:57.298Z,30.80
2019-03-23T08:22:57.216Z,32.20
2019-03-23T08:23:57.141Z,34.60
2019-03-23T08:24:57.067Z,33.50
2019-03-23T08:25:56.996Z,34.10
2019-03-23T08:26:56.905Z,32.20
2019-03-23T08:27:56.832Z,32.80
2019-03-23T08:28:56.767Z,33.40
2019-03-23T08:29:56.679Z,33.70
2019-03-23T08:30:56.605Z,29.80
2019-03-23T08:31:56.530Z,32.70
2019-03-23T08:32:56.463Z,34.60
2019-03-23T08:33:56.380Z,32.70
2019-03-23T08:34:58.054Z,34.40
2019-03-23T08:35:56.230Z,33.90
2019-03-23T08:36:56.162Z,33.10
2019-03-23T08:37:56.080Z,31.80
2019-03-23T08:38:56.005Z,32.50
2019-03-23T08:39:55.930Z,32.20
2019-03-23T08:40:55.857Z,32.80
2019-03-23T08:41:55.781Z,32.00
2019-03-23T08:42:55.706Z,32.40
2019-03-23T08:43:55.631Z,30.80
2019-03-23T08:44:55.558Z,35.40
2019-03-23T08:45:55.487Z,31.90
2019-03-23T08:46:55.407Z,34.30
2019-03-23T08:47:55.332Z,32.20
2019-03-23T08:48:55.258Z,32.40
2019-03-23T08:49:55.194Z,34.00
2019-03-23T08:50:55.111Z,31.90
2019-03-23T08:51:55.033Z,32.50
2019-03-23T08:52:54.972Z,31.90
2019-03-23T08:53:54.905Z,31.20
2019-03-23T08:54:54.820Z,32.30
2019-03-23T08:55:54.745Z,31.40
2019-03-23T08:56:54.671Z,33.30
2019-03-23T08:57:54.596Z,33.30
2019-03-23T08:58:54.520Z,30.80
2019-03-23T08:59:54.446Z,32.20
2019-03-23T09:00:54.371Z,27.90
2019-03-23T09:01:54.297Z,33.50
2019-03-23T09:02:54.223Z,32.10
2019-03-23T09:03:54.147Z,31.30
2019-03-23T09:04:54.075Z,29.70
2019-03-23T09:05:53.997Z,31.80
2019-03-23T09:06:53.921Z,32.30
2019-03-23T09:07:53.847Z,31.80
2019-03-23T09:08:53.771Z,32.50
2019-03-23T09:09:59.160Z,31.80
2019-03-23T09:10:53.622Z,32.00
2019-03-23T09:11:53.549Z,32.40
2019-03-23T09:12:53.483Z,32.30
2019-03-23T09:13:53.397Z,33.00
2019-03-23T09:14:53.322Z,32.60
2019-03-23T09:15:53.247Z,30.80
2019-03-23T09:16:53.173Z,30.70
2019-03-23T09:17:53.098Z,31.50
2019-03-23T09:18:53.022Z,34.40
2019-03-23T09:19:52.950Z,32.10
2019-03-23T09:20:52.874Z,32.90
2019-03-23T09:21:52.801Z,31.40
2019-03-23T09:22:52.727Z,31.50
2019-03-23T09:23:52.650Z,32.00
2019-03-23T09:24:56.853Z,31.50
2019-03-23T09:25:52.499Z,30.90
2019-03-23T09:26:52.424Z,30.10
2019-03-23T09:27:52.350Z,29.80
2019-03-23T09:28:52.275Z,30.60
2019-03-23T09:29:52.199Z,31.80
2019-03-23T09:30:52.123Z,34.20
2019-03-23T09:31:52.050Z,33.50
2019-03-23T09:32:51.978Z,31.50
2019-03-23T09:33:51.900Z,32.60
2019-03-23T09:34:51.824Z,32.00
2019-03-23T09:35:51.738Z,30.60
2019-03-23T09:36:51.675Z,31.00
2019-03-23T09:37:51.587Z,30.90
2019-03-23T09:38:51.515Z,32.10
2019-03-23T09:39:51.436Z,31.80
2019-03-23T09:40:51.363Z,32.60
2019-03-23T09:41:51.289Z,31.30
2019-03-23T09:42:51.213Z,30.40
2019-03-23T09:43:51.137Z,29.60
2019-03-23T09:44:51.064Z,29.90
2019-03-23T09:45:50.987Z,29.80
2019-03-23T09:46:50.913Z,31.20
2019-03-23T09:47:50.838Z,27.60
2019-03-23T09:48:50.764Z,30.50
2019-03-23T09:49:50.688Z,29.90
2019-03-23T09:50:50.613Z,27.70
2019-03-23T09:51:50.539Z,27.70
2019-03-23T09:52:50.463Z,27.50
2019-03-23T09:53:50.401Z,29.00
2019-03-23T09:54:50.316Z,28.20
2019-03-23T09:55:50.239Z,29.90
2019-03-23T09:56:50.164Z,30.20
2019-03-23T09:57:50.090Z,31.60
2019-03-23T09:58:50.002Z,31.20
2019-03-23T09:59:49.927Z,30.40
2019-03-23T10:00:49.853Z,31.40
2019-03-23T10:01:49.778Z,32.30
2019-03-23T10:02:49.703Z,29.20
2019-03-23T10:03:49.629Z,32.20
2019-03-23T10:04:49.553Z,30.20
2019-03-23T10:05:49.466Z,30.40
2019-03-23T10:06:49.389Z,33.60
2019-03-23T10:07:49.315Z,31.70
2019-03-23T10:08:49.253Z,31.70
2019-03-23T10:09:49.167Z,30.30
2019-03-23T10:10:49.082Z,30.60
2019-03-23T10:11:49.005Z,31.80
2019-03-23T10:12:48.929Z,31.40
2019-03-23T10:13:48.858Z,32.80
2019-03-23T10:14:48.781Z,28.30
2019-03-23T10:15:48.692Z,31.60
2019-03-23T10:16:48.616Z,31.20
2019-03-23T10:17:48.542Z,31.80
2019-03-23T10:18:48.466Z,32.60
2019-03-23T10:19:48.391Z,33.30
2019-03-23T10:20:48.316Z,32.50
2019-03-23T10:21:48.230Z,31.50
2019-03-23T10:22:48.205Z,30.80
2019-03-23T10:23:48.080Z,33.00
2019-03-23T10:24:48.008Z,30.40
2019-03-23T10:25:47.918Z,33.50
2019-03-23T10:26:47.842Z,30.80
2019-03-23T10:27:47.780Z,34.10
2019-03-23T10:28:47.692Z,30.60
2019-03-23T10:29:47.617Z,30.50
2019-03-23T10:30:47.542Z,30.90
2019-03-23T10:31:47.455Z,33.20
2019-03-23T10:32:47.381Z,31.80
2019-03-23T10:33:47.306Z,30.70
2019-03-23T10:34:47.223Z,30.20
2019-03-23T10:35:47.143Z,32.40
2019-03-23T10:36:47.068Z,30.60
2019-03-23T10:37:46.994Z,32.30
2019-03-23T10:38:46.931Z,29.70
2019-03-23T10:39:46.843Z,29.70
2019-03-23T10:40:46.761Z,30.00
2019-03-23T10:41:46.683Z,32.70
2019-03-23T10:42:46.607Z,31.80
2019-03-23T10:43:46.535Z,32.60
2019-03-23T10:44:46.450Z,34.80
2019-03-23T10:45:46.370Z,33.10
2019-03-23T10:46:46.294Z,35.80
2019-03-23T10:47:46.261Z,33.70
2019-03-23T10:48:46.145Z,36.10
2019-03-23T10:49:46.077Z,33.90
2019-03-23T10:50:45.983Z,34.80
2019-03-23T10:51:45.908Z,34.00
2019-03-23T10:52:45.840Z,34.80
2019-03-23T10:53:45.758Z,32.10
2019-03-23T10:54:45.683Z,34.40
2019-03-23T10:55:45.595Z,33.40
2019-03-23T10:56:45.520Z,36.60
2019-03-23T10:57:45.458Z,35.20
2019-03-23T10:58:45.370Z,36.70
2019-03-23T10:59:45.296Z,36.50
2019-03-23T11:00:45.221Z,36.10
2019-03-23T11:01:45.133Z,35.80
2019-03-23T11:02:45.060Z,34.20
2019-03-23T11:03:44.984Z,36.90
2019-03-23T11:04:44.909Z,40.80
2019-03-23T11:05:44.835Z,36.00
2019-03-23T11:06:44.747Z,36.80
2019-03-23T11:07:44.685Z,37.70
2019-03-23T11:08:44.596Z,37.40
2019-03-23T11:09:44.522Z,37.50
2019-03-23T11:10:44.459Z,39.40
2019-03-23T11:11:44.374Z,37.40
2019-03-23T11:12:44.298Z,41.10
2019-03-23T11:13:44.222Z,37.70
2019-03-23T11:14:44.136Z,43.00
2019-03-23T11:15:44.061Z,38.80
2019-03-23T11:16:43.986Z,40.20
2019-03-23T11:17:43.911Z,38.10
2019-03-23T11:18:43.835Z,43.50
2019-03-23T11:19:43.762Z,41.70
2019-03-23T11:20:43.686Z,40.70
2019-03-23T11:21:43.623Z,39.30
2019-03-23T11:22:43.536Z,39.90
2019-03-23T11:23:45.457Z,38.90
2019-03-23T11:24:43.388Z,40.80
2019-03-23T11:25:43.312Z,43.30
2019-03-23T11:26:43.236Z,41.40
2019-03-23T11:27:43.162Z,40.50
2019-03-23T11:28:43.091Z,40.60
2019-03-23T11:29:43.014Z,42.50
2019-03-23T11:30:42.937Z,42.00
2019-03-23T11:31:42.867Z,42.70
2019-03-23T11:32:42.790Z,43.80
2019-03-23T11:33:42.719Z,45.40
2019-03-23T11:34:42.650Z,44.20
2019-03-23T11:35:42.575Z,44.80
2019-03-23T11:36:42.513Z,45.70
2019-03-23T11:37:42.643Z,43.80
2019-03-23T11:38:42.351Z,41.20
2019-03-23T11:39:42.275Z,45.20
2019-03-23T11:40:52.044Z,44.60
2019-03-23T11:41:42.139Z,45.90
2019-03-23T11:42:49.894Z,45.30
2019-03-23T11:43:41.991Z,44.00
2019-03-23T11:44:41.940Z,42.80
2019-03-23T11:45:41.851Z,42.90
2019-03-23T11:46:41.776Z,43.20
2019-03-23T11:47:41.701Z,42.20
2019-03-23T11:48:41.627Z,44.50
2019-03-23T11:49:41.564Z,45.30
2019-03-23T11:50:41.490Z,45.70
2019-03-23T11:51:41.415Z,45.50
2019-03-23T11:52:41.340Z,47.50
2019-03-23T11:53:41.280Z,45.40
2019-03-23T11:54:41.201Z,45.10
2019-03-23T11:55:41.129Z,46.60
2019-03-23T11:56:41.054Z,44.10
2019-03-23T11:57:40.990Z,44.90
2019-03-23T11:58:40.941Z,43.70
2019-03-23T11:59:40.841Z,43.80
2019-03-23T12:00:40.778Z,44.10
2019-03-23T12:01:40.702Z,43.00
2019-03-23T12:02:40.630Z,43.00
2019-03-23T12:03:40.553Z,44.00
2019-03-23T12:04:40.492Z,42.20
2019-03-23T12:05:40.429Z,42.70
2019-03-23T12:06:40.343Z,44.60
2019-03-23T12:07:40.278Z,42.90
2019-03-23T12:08:40.203Z,43.00
2019-03-23T12:09:40.128Z,42.80
2019-03-23T12:10:40.057Z,41.70
2019-03-23T12:11:39.996Z,42.10
2019-03-23T12:12:39.918Z,43.90
2019-03-23T12:13:39.842Z,41.20
2019-03-23T12:14:39.768Z,43.50
2019-03-23T12:15:39.704Z,46.00
2019-03-23T12:16:39.629Z,45.00
2019-03-23T12:17:39.555Z,43.80
2019-03-23T12:18:39.492Z,42.30
2019-03-23T12:19:39.419Z,43.60
2019-03-23T12:20:39.342Z,45.30
2019-03-23T12:21:39.269Z,45.40
2019-03-23T12:22:39.193Z,42.30
2019-03-23T12:23:39.130Z,43.70
2019-03-23T12:24:39.055Z,46.30
2019-03-23T12:25:38.980Z,43.70
2019-03-23T12:26:38.905Z,44.60
2019-03-23T12:27:38.833Z,44.00
2019-03-23T12:28:38.768Z,43.90
2019-03-23T12:29:38.694Z,44.50
2019-03-23T12:30:38.621Z,46.50
2019-03-23T12:31:38.543Z,45.80
2019-03-23T12:32:38.469Z,46.50
2019-03-23T12:33:38.394Z,46.90
2019-03-23T12:34:38.326Z,48.40
2019-03-23T12:35:38.256Z,47.00
2019-03-23T12:36:38.183Z,50.50
2019-03-23T12:37:38.105Z,48.30
2019-03-23T12:38:38.031Z,47.40
2019-03-23T12:39:37.957Z,49.90
2019-03-23T12:40:37.882Z,48.20
2019-03-23T12:41:37.808Z,51.60
2019-03-23T12:42:37.732Z,48.00
2019-03-23T12:43:37.657Z,46.70
2019-03-23T12:44:37.586Z,48.30
2019-03-23T12:45:38.901Z,47.10
2019-03-23T12:46:47.688Z,44.40
2019-03-23T12:47:37.357Z,46.40
2019-03-23T12:48:37.283Z,44.50
2019-03-23T12:49:37.209Z,45.10
2019-03-23T12:50:37.135Z,43.70
2019-03-23T12:51:37.059Z,45.90
2019-03-23T12:52:36.996Z,44.60
2019-03-23T12:53:36.923Z,47.00
2019-03-23T12:54:36.846Z,45.60
2019-03-23T12:55:36.771Z,45.40
2019-03-23T12:56:36.744Z,46.60
2019-03-23T12:57:36.629Z,45.10
2019-03-23T12:58:36.546Z,44.50
2019-03-23T12:59:36.471Z,43.30
2019-03-23T13:00:36.401Z,45.90
2019-03-23T13:01:36.325Z,47.80
2019-03-23T13:02:36.249Z,49.00
2019-03-23T13:03:36.172Z,45.80
2019-03-23T13:04:36.097Z,44.30
2019-03-23T13:05:36.023Z,44.80
2019-03-23T13:06:35.950Z,42.50
2019-03-23T13:07:35.872Z,43.60
2019-03-23T13:08:35.801Z,43.10
2019-03-23T13:09:35.723Z,43.80
2019-03-23T13:10:35.648Z,43.60
2019-03-23T13:11:36.252Z,43.60
2019-03-23T13:12:35.497Z,43.10
2019-03-23T13:13:35.425Z,43.80
2019-03-23T13:14:35.400Z,44.20
2019-03-23T13:15:35.274Z,42.90
2019-03-23T13:16:35.198Z,43.10
2019-03-23T13:17:35.124Z,44.60
2019-03-23T13:18:35.047Z,43.00
2019-03-23T13:19:34.974Z,42.20
2019-03-23T13:21:34.827Z,41.30
2019-03-23T13:22:34.752Z,42.70
2019-03-23T13:23:34.674Z,41.80
2019-03-23T13:24:34.599Z,43.60
2019-03-23T13:25:34.525Z,41.30
2019-03-23T13:26:34.451Z,39.60
2019-03-23T13:27:34.375Z,39.90
2019-03-23T13:28:34.300Z,38.00
2019-03-23T13:29:34.225Z,38.30
2019-03-23T13:30:34.138Z,38.70
2019-03-23T13:31:35.431Z,36.40
2019-03-23T13:32:33.987Z,38.20
2019-03-23T13:33:33.912Z,36.10
2019-03-23T13:34:33.837Z,35.80
2019-03-23T13:35:33.762Z,36.10
2019-03-23T13:36:33.689Z,36.10
2019-03-23T13:37:33.613Z,34.90
2019-03-23T13:38:33.538Z,34.70
2019-03-23T13:39:33.462Z,35.20
2019-03-23T13:40:33.402Z,34.60
2019-03-23T13:41:33.318Z,37.00
2019-03-23T13:42:34.168Z,33.90
2019-03-23T13:43:33.163Z,34.00
2019-03-23T13:44:33.101Z,37.10
2019-03-23T13:45:42.268Z,34.60
2019-03-23T13:46:32.933Z,34.60
2019-03-23T13:47:32.863Z,34.70
2019-03-23T13:48:32.778Z,34.80
2019-03-23T13:49:32.702Z,33.90
2019-03-23T13:50:32.629Z,33.10
2019-03-23T13:51:32.551Z,31.70
2019-03-23T13:52:32.465Z,33.90
2019-03-23T13:53:32.403Z,34.10
2019-03-23T13:54:32.318Z,33.50
2019-03-23T13:55:32.241Z,36.30
2019-03-23T13:56:32.164Z,36.10
2019-03-23T13:57:32.081Z,36.30
2019-03-23T13:58:32.003Z,34.50
2019-03-23T13:59:31.929Z,33.60
2019-03-23T14:00:31.841Z,36.20
2019-03-23T14:01:31.766Z,32.80
2019-03-23T14:02:31.703Z,33.20
2019-03-23T14:03:31.604Z,34.60
2019-03-23T14:04:31.530Z,35.10
2019-03-23T14:05:31.501Z,34.30
2019-03-23T14:06:31.369Z,32.80
2019-03-23T14:07:31.307Z,31.90
2019-03-23T14:08:31.216Z,32.60
2019-03-23T14:09:31.130Z,32.90
2019-03-23T14:10:31.054Z,31.80
2019-03-23T14:11:30.985Z,33.10
2019-03-23T14:12:30.892Z,32.90
2019-03-23T14:13:30.819Z,31.40
2019-03-23T14:14:30.742Z,32.40
2019-03-23T14:15:30.666Z,34.00
2019-03-23T14:16:30.581Z,34.30
2019-03-23T14:17:30.504Z,33.60
2019-03-23T14:18:30.418Z,32.20
2019-03-23T14:19:30.342Z,31.80
2019-03-23T14:20:30.261Z,33.90
2019-03-23T14:21:30.180Z,36.40
2019-03-23T14:22:30.093Z,32.30
2019-03-23T14:23:30.020Z,32.00
2019-03-23T14:24:29.943Z,37.60
2019-03-23T14:25:29.856Z,32.20
2019-03-23T14:26:29.781Z,35.10
2019-03-23T14:27:29.706Z,36.10
2019-03-23T14:28:29.618Z,34.50
2019-03-23T14:29:29.557Z,33.40
2019-03-23T14:30:29.456Z,36.60
2019-03-23T14:31:29.389Z,34.60
2019-03-23T14:32:29.294Z,35.80
2019-03-23T14:33:29.219Z,35.70
2019-03-23T14:34:29.131Z,33.20
2019-03-23T14:35:29.057Z,35.20
2019-03-23T14:36:28.985Z,36.90
2019-03-23T14:37:28.895Z,34.00
2019-03-23T14:38:28.819Z,37.20
2019-03-23T14:39:28.735Z,33.90
2019-03-23T14:40:28.661Z,34.60
2019-03-23T14:41:28.583Z,37.60
2019-03-23T14:42:28.495Z,34.10
2019-03-23T14:43:28.422Z,37.60
2019-03-23T14:44:28.345Z,38.10
2019-03-23T14:45:28.258Z,38.00
2019-03-23T14:46:28.183Z,36.10
2019-03-23T14:47:28.101Z,36.80
2019-03-23T14:48:28.020Z,37.00
2019-03-23T14:49:27.934Z,40.30
2019-03-23T14:50:27.858Z,37.20
2019-03-23T14:51:27.774Z,37.30
2019-03-23T14:52:27.695Z,36.10
2019-03-23T14:53:27.609Z,38.40
2019-03-23T14:54:27.533Z,37.10
2019-03-23T14:55:27.448Z,36.10
2019-03-23T14:56:31.690Z,33.50
2019-03-23T14:57:27.297Z,38.40
2019-03-23T14:58:27.210Z,40.50
2019-03-23T14:59:27.134Z,36.90
2019-03-23T15:00:27.047Z,35.40
2019-03-23T15:01:26.972Z,35.80
2019-03-23T15:02:26.897Z,36.20
2019-03-23T15:03:26.810Z,37.00
2019-03-23T15:04:26.737Z,36.80
2019-03-23T15:05:26.647Z,40.80
2019-03-23T15:06:26.574Z,37.10
2019-03-23T15:07:26.488Z,37.10
2019-03-23T15:08:26.411Z,35.30
2019-03-23T15:09:26.336Z,36.50
2019-03-23T15:10:26.248Z,39.10
2019-03-23T15:11:26.173Z,36.90
2019-03-23T15:12:26.086Z,34.70
2019-03-23T15:13:26.012Z,35.80
2019-03-23T15:14:25.924Z,37.10
2019-03-23T15:15:25.848Z,37.40
2019-03-23T15:16:25.767Z,38.20
2019-03-23T15:17:25.686Z,34.70
2019-03-23T15:18:25.611Z,36.50
2019-03-23T15:19:25.525Z,37.20
2019-03-23T15:20:25.450Z,33.80
2019-03-23T15:21:25.363Z,35.80
2019-03-23T15:22:25.291Z,37.00
2019-03-23T15:23:25.199Z,32.60
2019-03-23T15:24:25.125Z,40.40
2019-03-23T15:25:25.038Z,35.40
2019-03-23T15:26:24.965Z,34.70
2019-03-23T15:27:24.887Z,35.20
2019-03-23T15:28:24.801Z,34.00
2019-03-23T15:29:24.739Z,35.30
2019-03-23T15:30:24.638Z,33.70
2019-03-23T15:31:24.566Z,33.80
2019-03-23T15:32:24.478Z,34.20
2019-03-23T15:33:24.404Z,31.70
2019-03-23T15:34:24.315Z,33.80
2019-03-23T15:35:24.239Z,28.80
2019-03-23T15:36:24.151Z,31.50
2019-03-23T15:37:24.076Z,33.50
2019-03-23T15:38:23.989Z,32.10
2019-03-23T15:39:23.915Z,32.70
2019-03-23T15:40:23.840Z,31.80
2019-03-23T15:41:24.802Z,31.80
2019-03-23T15:42:25.067Z,32.50
2019-03-23T15:43:23.592Z,32.40
2019-03-23T15:44:23.515Z,31.00
2019-03-23T15:45:23.426Z,28.90
2019-03-23T15:46:23.364Z,31.90
2019-03-23T15:47:23.265Z,27.30
2019-03-23T15:48:23.190Z,30.30
2019-03-23T15:49:23.105Z,28.00
2019-03-23T15:50:23.028Z,29.90
2019-03-23T15:51:22.954Z,29.80
2019-03-23T15:52:22.867Z,30.30
2019-03-23T15:53:22.790Z,30.40
2019-03-23T15:54:22.703Z,28.70
2019-03-23T15:55:22.627Z,28.00
2019-03-23T15:56:22.541Z,29.10
2019-03-23T15:57:22.467Z,29.10
2019-03-23T15:58:22.380Z,30.00
2019-03-23T15:59:22.316Z,30.10
2019-03-23T16:00:22.216Z,26.50
2019-03-23T16:01:23.273Z,30.10
2019-03-23T16:02:22.053Z,29.80
2019-03-23T16:03:21.981Z,32.00
2019-03-23T16:04:21.893Z,31.20
2019-03-23T16:05:21.818Z,30.00
2019-03-23T16:06:21.729Z,28.30
2019-03-23T16:07:29.235Z,31.20
2019-03-23T16:08:21.579Z,29.80
2019-03-23T16:09:21.493Z,33.40
2019-03-23T16:10:21.406Z,27.40
2019-03-23T16:11:21.329Z,30.80
2019-03-23T16:12:21.255Z,29.80
2019-03-23T16:13:21.167Z,28.10
2019-03-23T16:14:21.093Z,28.10
2019-03-23T16:15:21.005Z,29.40
2019-03-23T16:16:20.930Z,30.20
2019-03-23T16:17:20.844Z,34.60
2019-03-23T16:18:20.768Z,31.10
2019-03-23T16:19:20.681Z,32.00
2019-03-23T16:20:20.608Z,33.10
2019-03-23T16:21:20.519Z,34.60
2019-03-23T16:22:20.446Z,32.80
2019-03-23T16:23:20.356Z,33.80
2019-03-23T16:24:20.281Z,32.10
2019-03-23T16:25:20.196Z,30.10
2019-03-23T16:26:20.119Z,31.20
2019-03-23T16:27:20.031Z,30.80
2019-03-23T16:28:19.957Z,31.60
2019-03-23T16:29:19.869Z,32.60
2019-03-23T16:30:19.796Z,30.50
2019-03-23T16:31:19.707Z,33.70
2019-03-23T16:32:19.631Z,34.00
2019-03-23T16:33:19.545Z,31.30
2019-03-23T16:34:19.471Z,32.90
2019-03-23T16:35:19.382Z,29.20
2019-03-23T16:36:19.307Z,29.90
2019-03-23T16:37:19.223Z,28.80
2019-03-23T16:38:19.146Z,29.70
2019-03-23T16:39:19.058Z,31.00
2019-03-23T16:40:18.983Z,29.90
2019-03-23T16:41:18.898Z,31.80
2019-03-23T16:42:18.821Z,28.70
2019-03-23T16:43:18.734Z,28.70
2019-03-23T16:44:18.659Z,29.10
2019-03-23T16:45:18.586Z,29.20
2019-03-23T16:46:18.499Z,30.90
2019-03-23T16:47:18.410Z,29.50
2019-03-23T16:48:18.333Z,31.40
2019-03-23T16:49:18.259Z,27.10
2019-03-23T16:50:18.174Z,30.60